CheckWX is a tool to help pilots better visualize weather data.  It is not intended as a substitute for an official pre-flight weather briefing.

09:23:11 UTC

KBHK METAR
Baker Municipal Airport
Baker, Montana, USA
Current

32 mins ago

KBHK 190851Z AUTO 29007KT 10SM FEW002 SCT042 OVC065 01/00 A3007 RMK AO2 SLP205 60001 T00060000 57003
Observed
May-19 @ 08:51 UTC
Wind
  • 290° at 7 KTS
Visibility
10 SM
Flight Rules
VFR
Cloud Levels
  • Few at 200' AGL
  • Scattered at 4,200' AGL
  • Overcast at 6,500' AGL
Temperature
C / 34°F
Dewpoint
C / 32°F
Humidity
93%
Altimeter
30.07" Hg
Pressure
1018.32 hPa
Previous

2 hours ago

KBHK 190751Z AUTO 32003KT 10SM OVC065 01/00 A3007 RMK AO2 UPB0653E04RAB04E14SNE0653 SLP205 P0000 T00110000
Observed
May-19 @ 07:51 UTC
Wind
  • 320° at 3 KTS
Visibility
10 SM
Flight Rules
VFR
Cloud Levels
  • Overcast at 6,500' AGL
Temperature
C / 34°F
Dewpoint
C / 32°F
Humidity
93%
Altimeter
30.07" Hg
Pressure
1018.32 hPa
Current Rain
0.01"
Previous

3 hours ago

KBHK 190651Z AUTO 05007KT 9SM -SN OVC033 01/00 A3008 RMK AO2 UPB0554E32SNB32 SLP208 P0001 T00110000 400220000
Observed
May-19 @ 06:51 UTC
Wind
  • 050° at 7 KTS
Visibility
9 SM
Flight Rules
VFR
Conditions
Light Snow
Cloud Levels
  • Overcast at 3,300' AGL
Temperature
C / 34°F
Dewpoint
C / 32°F
Humidity
93%
Altimeter
30.08" Hg
Pressure
1018.62 hPa
Current Rain
0.01"